sensor_id;sensor_type;location;lat;lon;timestamp;temperature;humidity
56240;DHT22;42154;51.992;5.896;2022-12-07T09:07:03;3.40;99.90
56240;DHT22;42154;51.992;5.896;2022-12-07T09:09:29;3.40;99.90
56240;DHT22;42154;51.992;5.896;2022-12-07T09:11:55;3.60;99.90
56240;DHT22;42154;51.992;5.896;2022-12-07T09:14:21;3.80;99.90
56240;DHT22;42154;51.992;5.896;2022-12-07T09:16:47;4.00;99.90
56240;DHT22;42154;51.992;5.896;2022-12-07T09:19:12;4.20;99.90
56240;DHT22;42154;51.992;5.896;2022-12-07T09:21:38;4.30;99.90
56240;DHT22;42154;51.992;5.896;2022-12-07T09:24:04;4.40;99.90
56240;DHT22;42154;51.992;5.896;2022-12-07T09:26:30;4.60;99.90
56240;DHT22;42154;51.992;5.896;2022-12-07T09:28:55;4.80;99.90
56240;DHT22;42154;51.992;5.896;2022-12-07T09:31:21;4.90;99.90
56240;DHT22;42154;51.992;5.896;2022-12-07T09:33:47;5.00;99.90
56240;DHT22;42154;51.992;5.896;2022-12-07T09:36:17;5.20;99.90
56240;DHT22;42154;51.992;5.896;2022-12-07T09:38:43;5.20;99.90
56240;DHT22;42154;51.992;5.896;2022-12-07T09:41:09;5.20;99.90
56240;DHT22;42154;51.992;5.896;2022-12-07T09:43:36;5.30;99.90
56240;DHT22;42154;51.992;5.896;2022-12-07T09:46:04;5.30;99.90
56240;DHT22;42154;51.992;5.896;2022-12-07T09:48:33;5.40;99.90
56240;DHT22;42154;51.992;5.896;2022-12-07T09:51:01;5.50;99.90
56240;DHT22;42154;51.992;5.896;2022-12-07T09:53:32;5.50;99.90
56240;DHT22;42154;51.992;5.896;2022-12-07T09:55:59;5.50;99.90
56240;DHT22;42154;51.992;5.896;2022-12-07T09:58:27;5.50;99.90
56240;DHT22;42154;51.992;5.896;2022-12-07T10:00:56;5.50;99.90
56240;DHT22;42154;51.992;5.896;2022-12-07T10:03:25;5.50;99.90
56240;DHT22;42154;51.992;5.896;2022-12-07T10:05:52;5.50;99.90
56240;DHT22;42154;51.992;5.896;2022-12-07T10:08:19;5.60;99.90
56240;DHT22;42154;51.992;5.896;2022-12-07T10:10:46;5.60;99.90
56240;DHT22;42154;51.992;5.896;2022-12-07T10:13:19;5.70;99.90
56240;DHT22;42154;51.992;5.896;2022-12-07T10:15:56;5.70;99.90
56240;DHT22;42154;51.992;5.896;2022-12-07T10:18:41;5.70;99.90
56240;DHT22;42154;51.992;5.896;2022-12-07T10:24:02;5.80;99.90
56240;DHT22;42154;51.992;5.896;2022-12-07T10:26:38;5.80;99.90
56240;DHT22;42154;51.992;5.896;2022-12-07T10:29:22;5.80;99.90
56240;DHT22;42154;51.992;5.896;2022-12-07T10:32:04;5.80;99.90
56240;DHT22;42154;51.992;5.896;2022-12-07T10:34:35;5.80;99.90
56240;DHT22;42154;51.992;5.896;2022-12-07T10:39:39;5.70;99.90
56240;DHT22;42154;51.992;5.896;2022-12-07T10:44:41;5.80;99.90
56240;DHT22;42154;51.992;5.896;2022-12-07T10:50:14;5.90;99.90
56240;DHT22;42154;51.992;5.896;2022-12-07T10:58:21;6.20;99.90
56240;DHT22;42154;51.992;5.896;2022-12-07T11:06:51;6.30;99.90
56240;DHT22;42154;51.992;5.896;2022-12-07T11:09:50;6.20;99.90
56240;DHT22;42154;51.992;5.896;2022-12-07T11:12:32;6.20;99.90
56240;DHT22;42154;51.992;5.896;2022-12-07T11:15:26;6.10;99.90
56240;DHT22;42154;51.992;5.896;2022-12-07T11:18:21;6.10;99.90
56240;DHT22;42154;51.992;5.896;2022-12-07T11:20:52;6.10;99.90
56240;DHT22;42154;51.992;5.896;2022-12-07T11:29:13;6.20;99.90
56240;DHT22;42154;51.992;5.896;2022-12-07T11:37:02;6.30;99.90
56240;DHT22;42154;51.992;5.896;2022-12-07T11:39:33;6.30;99.90
56240;DHT22;42154;51.992;5.896;2022-12-07T11:42:06;6.40;99.90
56240;DHT22;42154;51.992;5.896;2022-12-07T11:44:52;6.40;99.90
56240;DHT22;42154;51.992;5.896;2022-12-07T11:52:57;6.60;99.90
56240;DHT22;42154;51.992;5.896;2022-12-07T11:58:51;6.70;99.90
56240;DHT22;42154;51.992;5.896;2022-12-07T12:03:47;6.70;99.90
56240;DHT22;42154;51.992;5.896;2022-12-07T12:06:13;6.70;99.90
56240;DHT22;42154;51.992;5.896;2022-12-07T12:08:44;6.70;99.90
56240;DHT22;42154;51.992;5.896;2022-12-07T12:14:05;6.70;99.90
56240;DHT22;42154;51.992;5.896;2022-12-07T12:19:19;6.70;99.90
56240;DHT22;42154;51.992;5.896;2022-12-07T12:21:53;6.70;99.90
56240;DHT22;42154;51.992;5.896;2022-12-07T12:24:25;6.90;99.90
56240;DHT22;42154;51.992;5.896;2022-12-07T12:27:01;7.00;99.90
56240;DHT22;42154;51.992;5.896;2022-12-07T12:29:37;7.00;99.90
56240;DHT22;42154;51.992;5.896;2022-12-07T12:42:49;7.50;99.90
56240;DHT22;42154;51.992;5.896;2022-12-07T12:45:27;7.70;99.90
56240;DHT22;42154;51.992;5.896;2022-12-07T12:48:26;7.80;99.90
56240;DHT22;42154;51.992;5.896;2022-12-07T12:54:04;7.90;99.90
56240;DHT22;42154;51.992;5.896;2022-12-07T12:56:43;7.90;99.90
56240;DHT22;42154;51.992;5.896;2022-12-07T12:59:22;7.90;99.90
56240;DHT22;42154;51.992;5.896;2022-12-07T13:04:57;7.80;99.90
56240;DHT22;42154;51.992;5.896;2022-12-07T13:15:45;7.60;99.90
56240;DHT22;42154;51.992;5.896;2022-12-07T13:18:24;7.60;99.90
56240;DHT22;42154;51.992;5.896;2022-12-07T13:34:27;7.80;99.90
56240;DHT22;42154;51.992;5.896;2022-12-07T13:36:51;7.80;99.90
56240;DHT22;42154;51.992;5.896;2022-12-07T13:39:23;7.80;99.90
56240;DHT22;42154;51.992;5.896;2022-12-07T13:41:51;7.70;99.90
56240;DHT22;42154;51.992;5.896;2022-12-07T13:44:18;7.70;99.90
56240;DHT22;42154;51.992;5.896;2022-12-07T13:46:50;7.80;99.90
56240;DHT22;42154;51.992;5.896;2022-12-07T13:49:39;7.80;99.90
56240;DHT22;42154;51.992;5.896;2022-12-07T13:52:25;7.90;99.90
56240;DHT22;42154;51.992;5.896;2022-12-07T13:57:31;7.90;99.90
56240;DHT22;42154;51.992;5.896;2022-12-07T14:00:00;7.90;99.90
56240;DHT22;42154;51.992;5.896;2022-12-07T14:02:29;7.90;99.90
56240;DHT22;42154;51.992;5.896;2022-12-07T14:05:14;7.90;99.90
56240;DHT22;42154;51.992;5.896;2022-12-07T14:07:57;7.90;99.90
56240;DHT22;42154;51.992;5.896;2022-12-07T14:10:26;7.90;99.90
56240;DHT22;42154;51.992;5.896;2022-12-07T14:12:52;7.70;99.90
56240;DHT22;42154;51.992;5.896;2022-12-07T14:15:23;7.50;99.90
56240;DHT22;42154;51.992;5.896;2022-12-07T14:17:51;7.40;99.90
56240;DHT22;42154;51.992;5.896;2022-12-07T14:20:35;7.20;99.90
56240;DHT22;42154;51.992;5.896;2022-12-07T14:23:02;7.00;99.90
56240;DHT22;42154;51.992;5.896;2022-12-07T14:25:49;6.80;99.90
56240;DHT22;42154;51.992;5.896;2022-12-07T14:28:33;6.70;99.90
56240;DHT22;42154;51.992;5.896;2022-12-07T14:31:00;6.60;99.90
56240;DHT22;42154;51.992;5.896;2022-12-07T14:33:27;6.60;99.90
56240;DHT22;42154;51.992;5.896;2022-12-07T14:35:53;6.70;99.90
56240;DHT22;42154;51.992;5.896;2022-12-07T14:38:24;6.60;99.90
56240;DHT22;42154;51.992;5.896;2022-12-07T14:40:52;6.60;99.90
56240;DHT22;42154;51.992;5.896;2022-12-07T14:43:19;6.50;99.90
56240;DHT22;42154;51.992;5.896;2022-12-07T14:45:45;6.60;99.90
56240;DHT22;42154;51.992;5.896;2022-12-07T14:48:14;6.60;99.90
56240;DHT22;42154;51.992;5.896;2022-12-07T14:50:44;6.60;99.90
56240;DHT22;42154;51.992;5.896;2022-12-07T14:53:16;6.60;99.90
56240;DHT22;42154;51.992;5.896;2022-12-07T14:55:42;6.60;99.90
56240;DHT22;42154;51.992;5.896;2022-12-07T14:58:15;6.60;99.90
56240;DHT22;42154;51.992;5.896;2022-12-07T15:00:41;6.60;99.90
56240;DHT22;42154;51.992;5.896;2022-12-07T15:03:07;6.60;99.90
56240;DHT22;42154;51.992;5.896;2022-12-07T15:05:33;6.60;99.90
56240;DHT22;42154;51.992;5.896;2022-12-07T15:07:59;6.60;99.90
56240;DHT22;42154;51.992;5.896;2022-12-07T15:10:28;6.60;99.90
56240;DHT22;42154;51.992;5.896;2022-12-07T15:13:02;6.50;99.90
56240;DHT22;42154;51.992;5.896;2022-12-07T15:15:49;6.50;99.90
56240;DHT22;42154;51.992;5.896;2022-12-07T15:18:15;6.40;99.90
56240;DHT22;42154;51.992;5.896;2022-12-07T15:20:41;6.40;99.90
56240;DHT22;42154;51.992;5.896;2022-12-07T15:23:07;6.40;99.90
56240;DHT22;42154;51.992;5.896;2022-12-07T15:25:33;6.50;99.90
56240;DHT22;42154;51.992;5.896;2022-12-07T15:27:59;6.40;99.90
56240;DHT22;42154;51.992;5.896;2022-12-07T15:30:25;6.40;99.90
56240;DHT22;42154;51.992;5.896;2022-12-07T15:32:51;6.40;99.90
56240;DHT22;42154;51.992;5.896;2022-12-07T15:35:17;6.30;99.90
56240;DHT22;42154;51.992;5.896;2022-12-07T15:37:43;6.30;99.90
56240;DHT22;42154;51.992;5.896;2022-12-07T15:40:09;6.30;99.90
56240;DHT22;42154;51.992;5.896;2022-12-07T15:42:36;6.20;99.90
56240;DHT22;42154;51.992;5.896;2022-12-07T15:45:02;6.20;99.90
56240;DHT22;42154;51.992;5.896;2022-12-07T15:47:33;6.20;99.90
56240;DHT22;42154;51.992;5.896;2022-12-07T15:50:05;6.20;99.90
56240;DHT22;42154;51.992;5.896;2022-12-07T15:52:32;6.20;99.90
56240;DHT22;42154;51.992;5.896;2022-12-07T15:54:58;6.20;99.90
56240;DHT22;42154;51.992;5.896;2022-12-07T15:57:26;6.10;99.90
56240;DHT22;42154;51.992;5.896;2022-12-07T15:59:52;6.20;99.90
56240;DHT22;42154;51.992;5.896;2022-12-07T16:02:18;6.30;99.90
56240;DHT22;42154;51.992;5.896;2022-12-07T16:04:43;6.20;99.90
56240;DHT22;42154;51.992;5.896;2022-12-07T16:07:09;6.30;99.90
56240;DHT22;42154;51.992;5.896;2022-12-07T16:09:37;6.30;99.90
56240;DHT22;42154;51.992;5.896;2022-12-07T16:12:03;6.30;99.90
56240;DHT22;42154;51.992;5.896;2022-12-07T16:14:29;6.30;99.90
56240;DHT22;42154;51.992;5.896;2022-12-07T16:16:57;6.30;99.90
56240;DHT22;42154;51.992;5.896;2022-12-07T16:19:23;6.30;99.90
56240;DHT22;42154;51.992;5.896;2022-12-07T16:21:49;6.30;99.90
56240;DHT22;42154;51.992;5.896;2022-12-07T16:24:14;6.30;99.90
56240;DHT22;42154;51.992;5.896;2022-12-07T16:26:40;6.30;99.90
56240;DHT22;42154;51.992;5.896;2022-12-07T16:29:06;6.30;99.90
56240;DHT22;42154;51.992;5.896;2022-12-07T16:31:32;6.30;99.90
56240;DHT22;42154;51.992;5.896;2022-12-07T16:33:58;6.30;99.90
56240;DHT22;42154;51.992;5.896;2022-12-07T16:36:25;6.20;99.90
56240;DHT22;42154;51.992;5.896;2022-12-07T16:38:52;6.20;99.90
56240;DHT22;42154;51.992;5.896;2022-12-07T16:41:18;6.10;99.90
56240;DHT22;42154;51.992;5.896;2022-12-07T16:43:44;6.10;99.90
56240;DHT22;42154;51.992;5.896;2022-12-07T16:46:10;6.10;99.90
56240;DHT22;42154;51.992;5.896;2022-12-07T16:48:39;6.10;99.90
56240;DHT22;42154;51.992;5.896;2022-12-07T16:51:06;6.10;99.90
56240;DHT22;42154;51.992;5.896;2022-12-07T16:53:35;6.00;99.90
56240;DHT22;42154;51.992;5.896;2022-12-07T16:56:01;5.90;99.90
56240;DHT22;42154;51.992;5.896;2022-12-07T16:58:28;6.00;99.90
56240;DHT22;42154;51.992;5.896;2022-12-07T17:00:54;5.90;99.90
56240;DHT22;42154;51.992;5.896;2022-12-07T17:03:20;5.90;99.90
56240;DHT22;42154;51.992;5.896;2022-12-07T17:05:46;5.90;99.90
56240;DHT22;42154;51.992;5.896;2022-12-07T17:08:13;5.90;99.90
56240;DHT22;42154;51.992;5.896;2022-12-07T17:10:41;5.90;99.90
56240;DHT22;42154;51.992;5.896;2022-12-07T17:13:07;5.90;99.90
56240;DHT22;42154;51.992;5.896;2022-12-07T17:16:03;5.90;99.90
56240;DHT22;42154;51.992;5.896;2022-12-07T17:18:31;5.80;99.90
56240;DHT22;42154;51.992;5.896;2022-12-07T17:21:05;5.80;99.90
56240;DHT22;42154;51.992;5.896;2022-12-07T17:23:32;5.80;99.90
56240;DHT22;42154;51.992;5.896;2022-12-07T17:26:08;5.80;99.90
56240;DHT22;42154;51.992;5.896;2022-12-07T17:28:35;5.80;99.90
56240;DHT22;42154;51.992;5.896;2022-12-07T17:31:04;5.80;99.90
56240;DHT22;42154;51.992;5.896;2022-12-07T17:33:30;5.70;99.90
56240;DHT22;42154;51.992;5.896;2022-12-07T17:35:56;5.70;99.90
56240;DHT22;42154;51.992;5.896;2022-12-07T17:38:22;5.70;99.90
56240;DHT22;42154;51.992;5.896;2022-12-07T17:40:47;5.70;99.90
56240;DHT22;42154;51.992;5.896;2022-12-07T17:43:13;5.70;99.90
56240;DHT22;42154;51.992;5.896;2022-12-07T17:45:39;5.70;99.90
56240;DHT22;42154;51.992;5.896;2022-12-07T17:48:04;5.70;99.90
56240;DHT22;42154;51.992;5.896;2022-12-07T17:50:30;5.60;99.90
56240;DHT22;42154;51.992;5.896;2022-12-07T17:53:15;5.70;99.90
56240;DHT22;42154;51.992;5.896;2022-12-07T17:55:40;5.60;99.90
56240;DHT22;42154;51.992;5.896;2022-12-07T17:58:06;5.60;99.90
56240;DHT22;42154;51.992;5.896;2022-12-07T18:00:32;5.60;99.90
56240;DHT22;42154;51.992;5.896;2022-12-07T18:03:06;5.60;99.90
56240;DHT22;42154;51.992;5.896;2022-12-07T18:05:37;5.60;99.90
56240;DHT22;42154;51.992;5.896;2022-12-07T18:08:04;5.60;99.90
56240;DHT22;42154;51.992;5.896;2022-12-07T18:10:30;5.60;99.90
56240;DHT22;42154;51.992;5.896;2022-12-07T18:12:56;5.50;99.90
56240;DHT22;42154;51.992;5.896;2022-12-07T18:15:42;5.50;99.90
56240;DHT22;42154;51.992;5.896;2022-12-07T18:18:08;5.50;99.90
56240;DHT22;42154;51.992;5.896;2022-12-07T18:20:34;5.50;99.90
56240;DHT22;42154;51.992;5.896;2022-12-07T18:22:59;5.50;99.90
56240;DHT22;42154;51.992;5.896;2022-12-07T18:25:25;5.50;99.90
56240;DHT22;42154;51.992;5.896;2022-12-07T18:27:51;5.50;99.90
56240;DHT22;42154;51.992;5.896;2022-12-07T18:30:17;5.50;99.90
56240;DHT22;42154;51.992;5.896;2022-12-07T18:32:42;5.50;99.90
56240;DHT22;42154;51.992;5.896;2022-12-07T18:35:08;5.50;99.90
56240;DHT22;42154;51.992;5.896;2022-12-07T18:37:34;5.50;99.90
56240;DHT22;42154;51.992;5.896;2022-12-07T18:40:00;5.50;99.90
56240;DHT22;42154;51.992;5.896;2022-12-07T18:42:25;5.50;99.90
56240;DHT22;42154;51.992;5.896;2022-12-07T18:44:51;5.50;99.90
56240;DHT22;42154;51.992;5.896;2022-12-07T18:47:17;5.50;99.90
56240;DHT22;42154;51.992;5.896;2022-12-07T18:49:42;5.50;99.90
56240;DHT22;42154;51.992;5.896;2022-12-07T18:52:08;5.40;99.90
56240;DHT22;42154;51.992;5.896;2022-12-07T18:54:34;5.40;99.90
56240;DHT22;42154;51.992;5.896;2022-12-07T18:56:59;5.50;99.90
56240;DHT22;42154;51.992;5.896;2022-12-07T18:59:25;5.40;99.90
56240;DHT22;42154;51.992;5.896;2022-12-07T19:02:10;5.40;99.90
56240;DHT22;42154;51.992;5.896;2022-12-07T19:04:36;5.40;99.90
56240;DHT22;42154;51.992;5.896;2022-12-07T19:07:02;5.50;99.90
56240;DHT22;42154;51.992;5.896;2022-12-07T19:09:27;5.50;99.90
56240;DHT22;42154;51.992;5.896;2022-12-07T19:11:53;5.50;99.90
56240;DHT22;42154;51.992;5.896;2022-12-07T19:16:57;5.50;99.90
56240;DHT22;42154;51.992;5.896;2022-12-07T19:19:29;5.50;99.90
56240;DHT22;42154;51.992;5.896;2022-12-07T19:21:55;5.50;99.90
56240;DHT22;42154;51.992;5.896;2022-12-07T19:24:21;5.50;99.90
56240;DHT22;42154;51.992;5.896;2022-12-07T19:26:47;5.50;99.90
56240;DHT22;42154;51.992;5.896;2022-12-07T19:29:12;5.50;99.90
56240;DHT22;42154;51.992;5.896;2022-12-07T19:31:38;5.50;99.90
56240;DHT22;42154;51.992;5.896;2022-12-07T19:34:09;5.50;99.90
56240;DHT22;42154;51.992;5.896;2022-12-07T19:36:35;5.50;99.90
56240;DHT22;42154;51.992;5.896;2022-12-07T19:39:01;5.50;99.90
56240;DHT22;42154;51.992;5.896;2022-12-07T19:41:27;5.50;99.90
56240;DHT22;42154;51.992;5.896;2022-12-07T19:44:06;5.50;99.90
56240;DHT22;42154;51.992;5.896;2022-12-07T19:46:33;5.50;99.90
56240;DHT22;42154;51.992;5.896;2022-12-07T19:48:59;5.40;99.90
56240;DHT22;42154;51.992;5.896;2022-12-07T19:51:26;5.40;99.90
56240;DHT22;42154;51.992;5.896;2022-12-07T19:53:53;5.50;99.90
56240;DHT22;42154;51.992;5.896;2022-12-07T19:56:20;5.50;99.90
56240;DHT22;42154;51.992;5.896;2022-12-07T19:58:47;5.50;99.90
56240;DHT22;42154;51.992;5.896;2022-12-07T20:01:13;5.40;99.90
56240;DHT22;42154;51.992;5.896;2022-12-07T20:03:39;5.40;99.90
56240;DHT22;42154;51.992;5.896;2022-12-07T20:06:14;5.60;99.90
56240;DHT22;42154;51.992;5.896;2022-12-07T20:08:41;5.50;99.90
56240;DHT22;42154;51.992;5.896;2022-12-07T20:11:07;5.40;99.90
56240;DHT22;42154;51.992;5.896;2022-12-07T20:13:53;5.40;99.90
56240;DHT22;42154;51.992;5.896;2022-12-07T20:16:19;5.40;99.90
56240;DHT22;42154;51.992;5.896;2022-12-07T20:18:46;5.40;99.90
56240;DHT22;42154;51.992;5.896;2022-12-07T20:21:11;5.40;99.90
56240;DHT22;42154;51.992;5.896;2022-12-07T20:23:37;5.40;99.90
56240;DHT22;42154;51.992;5.896;2022-12-07T20:26:06;5.40;99.90
56240;DHT22;42154;51.992;5.896;2022-12-07T20:28:33;5.40;99.90
56240;DHT22;42154;51.992;5.896;2022-12-07T20:30:58;5.40;99.90
56240;DHT22;42154;51.992;5.896;2022-12-07T20:33:25;5.30;99.90
56240;DHT22;42154;51.992;5.896;2022-12-07T20:35:51;5.30;99.90
56240;DHT22;42154;51.992;5.896;2022-12-07T20:38:16;5.30;99.90
56240;DHT22;42154;51.992;5.896;2022-12-07T20:40:47;5.30;99.90
56240;DHT22;42154;51.992;5.896;2022-12-07T20:43:13;5.30;99.90
56240;DHT22;42154;51.992;5.896;2022-12-07T20:45:46;5.30;99.90
56240;DHT22;42154;51.992;5.896;2022-12-07T20:48:12;5.30;99.90
56240;DHT22;42154;51.992;5.896;2022-12-07T20:50:38;5.30;99.90
56240;DHT22;42154;51.992;5.896;2022-12-07T20:53:04;5.30;99.90
56240;DHT22;42154;51.992;5.896;2022-12-07T20:55:30;5.30;99.90
56240;DHT22;42154;51.992;5.896;2022-12-07T20:57:56;5.30;99.90
56240;DHT22;42154;51.992;5.896;2022-12-07T21:00:21;5.30;99.90
56240;DHT22;42154;51.992;5.896;2022-12-07T21:02:47;5.20;99.90
56240;DHT22;42154;51.992;5.896;2022-12-07T21:05:13;5.20;99.90
56240;DHT22;42154;51.992;5.896;2022-12-07T21:07:39;5.30;99.90
56240;DHT22;42154;51.992;5.896;2022-12-07T21:10:05;5.30;99.90
56240;DHT22;42154;51.992;5.896;2022-12-07T21:12:31;5.30;99.90
56240;DHT22;42154;51.992;5.896;2022-12-07T21:14:57;5.30;99.90
56240;DHT22;42154;51.992;5.896;2022-12-07T21:17:23;5.30;99.90
56240;DHT22;42154;51.992;5.896;2022-12-07T21:19:50;5.30;99.90
56240;DHT22;42154;51.992;5.896;2022-12-07T21:22:16;5.30;99.90
56240;DHT22;42154;51.992;5.896;2022-12-07T21:24:42;5.30;99.90
56240;DHT22;42154;51.992;5.896;2022-12-07T21:27:08;5.30;99.90
56240;DHT22;42154;51.992;5.896;2022-12-07T21:29:34;5.30;99.90
56240;DHT22;42154;51.992;5.896;2022-12-07T21:32:01;5.20;99.90
56240;DHT22;42154;51.992;5.896;2022-12-07T21:34:27;5.20;99.90
56240;DHT22;42154;51.992;5.896;2022-12-07T21:36:52;5.20;99.90
56240;DHT22;42154;51.992;5.896;2022-12-07T21:39:18;5.10;99.90
56240;DHT22;42154;51.992;5.896;2022-12-07T21:41:44;5.10;99.90
56240;DHT22;42154;51.992;5.896;2022-12-07T21:44:09;5.10;99.90
56240;DHT22;42154;51.992;5.896;2022-12-07T21:46:36;5.00;99.90
56240;DHT22;42154;51.992;5.896;2022-12-07T21:49:05;5.00;99.90
56240;DHT22;42154;51.992;5.896;2022-12-07T21:51:31;5.00;99.90
56240;DHT22;42154;51.992;5.896;2022-12-07T21:53:57;5.00;99.90
56240;DHT22;42154;51.992;5.896;2022-12-07T21:56:28;4.90;99.90
56240;DHT22;42154;51.992;5.896;2022-12-07T21:58:58;4.90;99.90
56240;DHT22;42154;51.992;5.896;2022-12-07T22:01:26;4.80;99.90
56240;DHT22;42154;51.992;5.896;2022-12-07T22:03:52;4.80;99.90
56240;DHT22;42154;51.992;5.896;2022-12-07T22:06:21;4.80;99.90
56240;DHT22;42154;51.992;5.896;2022-12-07T22:08:48;4.90;99.90
56240;DHT22;42154;51.992;5.896;2022-12-07T22:11:14;4.90;99.90
56240;DHT22;42154;51.992;5.896;2022-12-07T22:13:41;4.80;99.90
56240;DHT22;42154;51.992;5.896;2022-12-07T22:16:26;4.80;99.90
56240;DHT22;42154;51.992;5.896;2022-12-07T22:18:53;4.80;99.90
56240;DHT22;42154;51.992;5.896;2022-12-07T22:21:19;4.80;99.90
56240;DHT22;42154;51.992;5.896;2022-12-07T22:23:45;4.80;99.90
56240;DHT22;42154;51.992;5.896;2022-12-07T22:26:13;4.80;99.90
56240;DHT22;42154;51.992;5.896;2022-12-07T22:28:40;4.80;99.90
56240;DHT22;42154;51.992;5.896;2022-12-07T22:31:07;4.80;99.90
56240;DHT22;42154;51.992;5.896;2022-12-07T22:33:33;4.90;99.90
56240;DHT22;42154;51.992;5.896;2022-12-07T22:35:59;4.80;99.90
56240;DHT22;42154;51.992;5.896;2022-12-07T22:38:26;4.90;99.90
56240;DHT22;42154;51.992;5.896;2022-12-07T22:40:53;4.90;99.90
56240;DHT22;42154;51.992;5.896;2022-12-07T22:43:18;4.90;99.90
56240;DHT22;42154;51.992;5.896;2022-12-07T22:46:01;4.80;99.90
56240;DHT22;42154;51.992;5.896;2022-12-07T22:48:27;4.80;99.90
56240;DHT22;42154;51.992;5.896;2022-12-07T22:50:54;4.80;99.90
56240;DHT22;42154;51.992;5.896;2022-12-07T22:53:23;4.80;99.90
56240;DHT22;42154;51.992;5.896;2022-12-07T22:55:49;4.80;99.90
56240;DHT22;42154;51.992;5.896;2022-12-07T22:58:16;4.70;99.90
56240;DHT22;42154;51.992;5.896;2022-12-07T23:00:51;4.70;99.90
56240;DHT22;42154;51.992;5.896;2022-12-07T23:03:17;4.70;99.90
56240;DHT22;42154;51.992;5.896;2022-12-07T23:05:47;4.60;99.90
56240;DHT22;42154;51.992;5.896;2022-12-07T23:08:14;4.60;99.90
56240;DHT22;42154;51.992;5.896;2022-12-07T23:10:44;4.70;99.90
56240;DHT22;42154;51.992;5.896;2022-12-07T23:13:11;4.50;99.90
56240;DHT22;42154;51.992;5.896;2022-12-07T23:16:07;4.50;99.90
56240;DHT22;42154;51.992;5.896;2022-12-07T23:18:33;4.50;99.90
56240;DHT22;42154;51.992;5.896;2022-12-07T23:20:59;4.50;99.90
56240;DHT22;42154;51.992;5.896;2022-12-07T23:23:25;4.50;99.90
56240;DHT22;42154;51.992;5.896;2022-12-07T23:25:51;4.50;99.90
56240;DHT22;42154;51.992;5.896;2022-12-07T23:28:17;4.50;99.90
56240;DHT22;42154;51.992;5.896;2022-12-07T23:30:43;4.50;99.90
56240;DHT22;42154;51.992;5.896;2022-12-07T23:33:09;4.50;99.90
56240;DHT22;42154;51.992;5.896;2022-12-07T23:35:34;4.50;99.90
56240;DHT22;42154;51.992;5.896;2022-12-07T23:38:00;4.50;99.90
56240;DHT22;42154;51.992;5.896;2022-12-07T23:40:26;4.50;99.90
56240;DHT22;42154;51.992;5.896;2022-12-07T23:42:51;4.50;99.90
56240;DHT22;42154;51.992;5.896;2022-12-07T23:45:17;4.50;99.90
56240;DHT22;42154;51.992;5.896;2022-12-07T23:47:43;4.50;99.90
56240;DHT22;42154;51.992;5.896;2022-12-07T23:50:09;4.50;99.90
56240;DHT22;42154;51.992;5.896;2022-12-07T23:52:34;4.50;99.90
56240;DHT22;42154;51.992;5.896;2022-12-07T23:55:00;4.50;99.90
56240;DHT22;42154;51.992;5.896;2022-12-07T23:57:26;4.60;99.90
56240;DHT22;42154;51.992;5.896;2022-12-07T23:59:51;4.60;99.90
